sensor_id;sensor_type;location;lat;lon;timestamp;P1;durP1;ratioP1;P2;durP2;ratioP2
10461;SDS011;5278;42.656;23.374;2022-09-04T00:00:06;7.07;;;6.10;;
10461;SDS011;5278;42.656;23.374;2022-09-04T00:02:55;7.20;;;6.50;;
10461;SDS011;5278;42.656;23.374;2022-09-04T00:05:35;7.60;;;6.63;;
10461;SDS011;5278;42.656;23.374;2022-09-04T00:08:13;7.97;;;6.50;;
10461;SDS011;5278;42.656;23.374;2022-09-04T00:10:51;7.03;;;6.33;;
10461;SDS011;5278;42.656;23.374;2022-09-04T00:13:23;8.87;;;7.37;;
10461;SDS011;5278;42.656;23.374;2022-09-04T00:15:55;6.90;;;5.77;;
10461;SDS011;5278;42.656;23.374;2022-09-04T00:18:28;7.63;;;6.10;;
10461;SDS011;5278;42.656;23.374;2022-09-04T00:21:01;7.47;;;6.77;;
10461;SDS011;5278;42.656;23.374;2022-09-04T00:23:40;8.60;;;6.60;;
10461;SDS011;5278;42.656;23.374;2022-09-04T00:26:11;8.23;;;6.20;;
10461;SDS011;5278;42.656;23.374;2022-09-04T00:28:45;7.40;;;6.17;;
10461;SDS011;5278;42.656;23.374;2022-09-04T00:31:17;8.87;;;6.30;;
10461;SDS011;5278;42.656;23.374;2022-09-04T00:33:53;9.33;;;6.53;;
10461;SDS011;5278;42.656;23.374;2022-09-04T00:36:31;7.23;;;6.33;;
10461;SDS011;5278;42.656;23.374;2022-09-04T00:39:06;7.40;;;6.70;;
10461;SDS011;5278;42.656;23.374;2022-09-04T00:41:38;7.80;;;6.63;;
10461;SDS011;5278;42.656;23.374;2022-09-04T00:50:41;8.77;;;6.70;;
10461;SDS011;5278;42.656;23.374;2022-09-04T00:53:36;7.60;;;6.13;;
10461;SDS011;5278;42.656;23.374;2022-09-04T00:56:34;6.67;;;6.03;;
10461;SDS011;5278;42.656;23.374;2022-09-04T00:59:20;9.87;;;5.60;;
10461;SDS011;5278;42.656;23.374;2022-09-04T01:01:59;6.43;;;5.33;;
10461;SDS011;5278;42.656;23.374;2022-09-04T01:04:35;7.30;;;5.10;;
10461;SDS011;5278;42.656;23.374;2022-09-04T01:07:14;5.83;;;5.23;;
10461;SDS011;5278;42.656;23.374;2022-09-04T01:09:58;6.33;;;4.93;;
10461;SDS011;5278;42.656;23.374;2022-09-04T01:12:47;5.40;;;4.70;;
10461;SDS011;5278;42.656;23.374;2022-09-04T01:15:21;5.60;;;4.53;;
10461;SDS011;5278;42.656;23.374;2022-09-04T01:17:58;6.57;;;5.60;;
10461;SDS011;5278;42.656;23.374;2022-09-04T01:20:37;5.53;;;5.03;;
10461;SDS011;5278;42.656;23.374;2022-09-04T01:26:18;6.10;;;5.20;;
10461;SDS011;5278;42.656;23.374;2022-09-04T01:28:55;5.13;;;4.63;;
10461;SDS011;5278;42.656;23.374;2022-09-04T01:31:34;5.17;;;4.70;;
10461;SDS011;5278;42.656;23.374;2022-09-04T01:34:11;4.53;;;4.10;;
10461;SDS011;5278;42.656;23.374;2022-09-04T01:36:48;7.90;;;5.13;;
10461;SDS011;5278;42.656;23.374;2022-09-04T01:39:22;6.37;;;5.03;;
10461;SDS011;5278;42.656;23.374;2022-09-04T01:41:59;4.63;;;4.23;;
10461;SDS011;5278;42.656;23.374;2022-09-04T01:44:30;5.33;;;4.80;;
10461;SDS011;5278;42.656;23.374;2022-09-04T01:47:00;7.00;;;5.60;;
10461;SDS011;5278;42.656;23.374;2022-09-04T01:49:33;5.20;;;4.70;;
10461;SDS011;5278;42.656;23.374;2022-09-04T01:52:07;7.20;;;4.97;;
10461;SDS011;5278;42.656;23.374;2022-09-04T01:54:46;5.70;;;4.77;;
10461;SDS011;5278;42.656;23.374;2022-09-04T01:57:27;4.97;;;4.40;;
10461;SDS011;5278;42.656;23.374;2022-09-04T02:00:06;5.30;;;4.80;;
10461;SDS011;5278;42.656;23.374;2022-09-04T02:02:42;5.77;;;5.20;;
10461;SDS011;5278;42.656;23.374;2022-09-04T02:05:20;6.10;;;4.57;;
10461;SDS011;5278;42.656;23.374;2022-09-04T02:07:57;6.83;;;5.43;;
10461;SDS011;5278;42.656;23.374;2022-09-04T02:10:34;6.33;;;5.37;;
10461;SDS011;5278;42.656;23.374;2022-09-04T02:13:09;5.87;;;5.30;;
10461;SDS011;5278;42.656;23.374;2022-09-04T02:15:46;6.03;;;5.20;;
10461;SDS011;5278;42.656;23.374;2022-09-04T02:18:26;6.73;;;5.27;;
10461;SDS011;5278;42.656;23.374;2022-09-04T02:21:04;6.27;;;5.60;;
10461;SDS011;5278;42.656;23.374;2022-09-04T02:23:39;6.20;;;5.60;;
10461;SDS011;5278;42.656;23.374;2022-09-04T02:26:10;5.83;;;5.20;;
10461;SDS011;5278;42.656;23.374;2022-09-04T02:28:46;5.43;;;4.87;;
10461;SDS011;5278;42.656;23.374;2022-09-04T02:31:24;5.70;;;5.20;;
10461;SDS011;5278;42.656;23.374;2022-09-04T02:34:00;6.73;;;5.83;;
10461;SDS011;5278;42.656;23.374;2022-09-04T02:36:33;8.27;;;6.40;;
10461;SDS011;5278;42.656;23.374;2022-09-04T02:39:08;7.67;;;6.27;;
10461;SDS011;5278;42.656;23.374;2022-09-04T02:41:48;7.60;;;6.87;;
10461;SDS011;5278;42.656;23.374;2022-09-04T02:44:28;7.80;;;6.47;;
10461;SDS011;5278;42.656;23.374;2022-09-04T02:47:05;6.40;;;5.80;;
10461;SDS011;5278;42.656;23.374;2022-09-04T02:49:44;10.30;;;7.17;;
10461;SDS011;5278;42.656;23.374;2022-09-04T02:52:25;7.57;;;6.77;;
10461;SDS011;5278;42.656;23.374;2022-09-04T02:55:17;9.57;;;6.40;;
10461;SDS011;5278;42.656;23.374;2022-09-04T02:57:57;9.40;;;6.40;;
10461;SDS011;5278;42.656;23.374;2022-09-04T03:00:39;6.90;;;5.70;;
10461;SDS011;5278;42.656;23.374;2022-09-04T03:03:14;9.73;;;6.67;;
10461;SDS011;5278;42.656;23.374;2022-09-04T03:05:46;6.60;;;5.97;;
10461;SDS011;5278;42.656;23.374;2022-09-04T03:08:19;6.63;;;6.03;;
10461;SDS011;5278;42.656;23.374;2022-09-04T03:10:50;6.20;;;5.60;;
10461;SDS011;5278;42.656;23.374;2022-09-04T03:13:22;5.87;;;5.00;;
10461;SDS011;5278;42.656;23.374;2022-09-04T03:15:57;7.87;;;5.80;;
10461;SDS011;5278;42.656;23.374;2022-09-04T03:18:30;8.37;;;6.43;;
10461;SDS011;5278;42.656;23.374;2022-09-04T03:21:19;8.53;;;6.57;;
10461;SDS011;5278;42.656;23.374;2022-09-04T03:23:53;10.10;;;6.67;;
10461;SDS011;5278;42.656;23.374;2022-09-04T03:26:26;8.90;;;6.63;;
10461;SDS011;5278;42.656;23.374;2022-09-04T03:28:59;6.33;;;5.77;;
10461;SDS011;5278;42.656;23.374;2022-09-04T03:31:32;8.33;;;6.70;;
10461;SDS011;5278;42.656;23.374;2022-09-04T03:34:16;8.37;;;6.23;;
10461;SDS011;5278;42.656;23.374;2022-09-04T03:36:51;6.00;;;5.47;;
10461;SDS011;5278;42.656;23.374;2022-09-04T03:39:31;9.20;;;6.03;;
10461;SDS011;5278;42.656;23.374;2022-09-04T03:42:08;7.47;;;6.03;;
10461;SDS011;5278;42.656;23.374;2022-09-04T03:44:43;7.77;;;6.33;;
10461;SDS011;5278;42.656;23.374;2022-09-04T03:47:26;6.87;;;6.17;;
10461;SDS011;5278;42.656;23.374;2022-09-04T03:50:02;7.27;;;6.00;;
10461;SDS011;5278;42.656;23.374;2022-09-04T03:52:43;6.97;;;6.07;;
10461;SDS011;5278;42.656;23.374;2022-09-04T03:58:13;8.57;;;6.53;;
10461;SDS011;5278;42.656;23.374;2022-09-04T04:00:50;6.63;;;6.03;;
10461;SDS011;5278;42.656;23.374;2022-09-04T04:03:30;6.63;;;5.93;;
10461;SDS011;5278;42.656;23.374;2022-09-04T04:06:11;8.53;;;6.70;;
10461;SDS011;5278;42.656;23.374;2022-09-04T04:08:49;10.67;;;7.00;;
10461;SDS011;5278;42.656;23.374;2022-09-04T04:11:34;9.63;;;7.20;;
10461;SDS011;5278;42.656;23.374;2022-09-04T04:14:28;8.27;;;6.70;;
10461;SDS011;5278;42.656;23.374;2022-09-04T04:17:10;8.13;;;6.70;;
10461;SDS011;5278;42.656;23.374;2022-09-04T04:19:54;8.50;;;7.60;;
10461;SDS011;5278;42.656;23.374;2022-09-04T04:22:38;7.87;;;7.07;;
10461;SDS011;5278;42.656;23.374;2022-09-04T04:25:20;8.63;;;7.27;;
10461;SDS011;5278;42.656;23.374;2022-09-04T04:28:01;8.57;;;7.10;;
10461;SDS011;5278;42.656;23.374;2022-09-04T04:30:47;8.00;;;7.20;;
10461;SDS011;5278;42.656;23.374;2022-09-04T04:33:28;8.87;;;7.57;;
10461;SDS011;5278;42.656;23.374;2022-09-04T04:36:13;8.03;;;7.20;;
10461;SDS011;5278;42.656;23.374;2022-09-04T04:38:56;8.80;;;7.33;;
10461;SDS011;5278;42.656;23.374;2022-09-04T04:41:39;9.20;;;7.80;;
10461;SDS011;5278;42.656;23.374;2022-09-04T04:44:47;8.67;;;7.30;;
10461;SDS011;5278;42.656;23.374;2022-09-04T04:47:58;9.97;;;7.17;;
10461;SDS011;5278;42.656;23.374;2022-09-04T04:50:53;8.30;;;7.07;;
10461;SDS011;5278;42.656;23.374;2022-09-04T04:53:38;8.43;;;7.53;;
10461;SDS011;5278;42.656;23.374;2022-09-04T04:56:13;10.37;;;7.93;;
10461;SDS011;5278;42.656;23.374;2022-09-04T04:58:51;11.03;;;7.57;;
10461;SDS011;5278;42.656;23.374;2022-09-04T05:01:31;9.10;;;8.00;;
10461;SDS011;5278;42.656;23.374;2022-09-04T05:04:09;9.73;;;8.27;;
10461;SDS011;5278;42.656;23.374;2022-09-04T05:06:45;9.60;;;7.97;;
10461;SDS011;5278;42.656;23.374;2022-09-04T05:09:20;8.73;;;7.53;;
10461;SDS011;5278;42.656;23.374;2022-09-04T05:11:58;8.17;;;7.37;;
10461;SDS011;5278;42.656;23.374;2022-09-04T05:14:36;10.40;;;8.17;;
10461;SDS011;5278;42.656;23.374;2022-09-04T05:17:12;9.47;;;8.13;;
10461;SDS011;5278;42.656;23.374;2022-09-04T05:19:46;8.93;;;7.47;;
10461;SDS011;5278;42.656;23.374;2022-09-04T05:22:19;8.73;;;7.57;;
10461;SDS011;5278;42.656;23.374;2022-09-04T05:24:56;9.03;;;8.13;;
10461;SDS011;5278;42.656;23.374;2022-09-04T05:27:46;10.57;;;8.60;;
10461;SDS011;5278;42.656;23.374;2022-09-04T05:30:19;16.97;;;11.07;;
10461;SDS011;5278;42.656;23.374;2022-09-04T05:32:55;15.20;;;11.30;;
10461;SDS011;5278;42.656;23.374;2022-09-04T05:35:31;9.03;;;8.10;;
10461;SDS011;5278;42.656;23.374;2022-09-04T05:38:09;8.10;;;7.30;;
10461;SDS011;5278;42.656;23.374;2022-09-04T05:40:48;18.63;;;12.73;;
10461;SDS011;5278;42.656;23.374;2022-09-04T05:43:28;13.23;;;9.97;;
10461;SDS011;5278;42.656;23.374;2022-09-04T05:46:03;9.47;;;8.17;;
10461;SDS011;5278;42.656;23.374;2022-09-04T05:48:37;8.63;;;7.37;;
10461;SDS011;5278;42.656;23.374;2022-09-04T05:51:25;8.87;;;6.83;;
10461;SDS011;5278;42.656;23.374;2022-09-04T05:54:19;9.07;;;6.80;;
10461;SDS011;5278;42.656;23.374;2022-09-04T05:57:14;8.47;;;7.30;;
10461;SDS011;5278;42.656;23.374;2022-09-04T06:00:01;7.53;;;6.50;;
10461;SDS011;5278;42.656;23.374;2022-09-04T06:06:02;8.77;;;7.87;;
10461;SDS011;5278;42.656;23.374;2022-09-04T06:08:38;8.00;;;6.73;;
10461;SDS011;5278;42.656;23.374;2022-09-04T06:14:35;9.60;;;8.17;;
10461;SDS011;5278;42.656;23.374;2022-09-04T06:17:27;8.67;;;7.07;;
10461;SDS011;5278;42.656;23.374;2022-09-04T06:26:01;9.27;;;8.30;;
10461;SDS011;5278;42.656;23.374;2022-09-04T06:28:41;9.90;;;8.40;;
10461;SDS011;5278;42.656;23.374;2022-09-04T06:34:22;10.43;;;8.10;;
10461;SDS011;5278;42.656;23.374;2022-09-04T06:37:00;9.73;;;8.80;;
10461;SDS011;5278;42.656;23.374;2022-09-04T06:39:40;9.23;;;8.23;;
10461;SDS011;5278;42.656;23.374;2022-09-04T06:42:23;9.03;;;7.87;;
10461;SDS011;5278;42.656;23.374;2022-09-04T06:45:04;9.97;;;7.57;;
10461;SDS011;5278;42.656;23.374;2022-09-04T06:47:47;12.07;;;9.83;;
10461;SDS011;5278;42.656;23.374;2022-09-04T06:50:28;10.57;;;8.30;;
10461;SDS011;5278;42.656;23.374;2022-09-04T06:53:06;15.17;;;9.40;;
10461;SDS011;5278;42.656;23.374;2022-09-04T06:55:46;11.60;;;8.30;;
10461;SDS011;5278;42.656;23.374;2022-09-04T07:01:15;11.07;;;9.07;;
10461;SDS011;5278;42.656;23.374;2022-09-04T07:03:57;14.20;;;8.47;;
10461;SDS011;5278;42.656;23.374;2022-09-04T07:06:42;9.60;;;8.63;;
10461;SDS011;5278;42.656;23.374;2022-09-04T07:09:17;8.63;;;7.57;;
10461;SDS011;5278;42.656;23.374;2022-09-04T07:11:56;9.80;;;8.80;;
10461;SDS011;5278;42.656;23.374;2022-09-04T07:14:54;10.37;;;8.93;;
10461;SDS011;5278;42.656;23.374;2022-09-04T07:17:45;7.70;;;6.87;;
10461;SDS011;5278;42.656;23.374;2022-09-04T07:20:26;7.80;;;7.00;;
10461;SDS011;5278;42.656;23.374;2022-09-04T07:26:01;8.57;;;7.77;;
10461;SDS011;5278;42.656;23.374;2022-09-04T07:28:50;7.30;;;6.60;;
10461;SDS011;5278;42.656;23.374;2022-09-04T07:31:30;9.60;;;8.70;;
10461;SDS011;5278;42.656;23.374;2022-09-04T07:34:06;8.83;;;7.87;;
10461;SDS011;5278;42.656;23.374;2022-09-04T07:36:39;9.30;;;8.50;;
10461;SDS011;5278;42.656;23.374;2022-09-04T07:39:15;8.90;;;8.00;;
10461;SDS011;5278;42.656;23.374;2022-09-04T07:41:48;7.23;;;6.27;;
10461;SDS011;5278;42.656;23.374;2022-09-04T07:44:25;9.93;;;7.57;;
10461;SDS011;5278;42.656;23.374;2022-09-04T07:47:00;8.97;;;7.60;;
10461;SDS011;5278;42.656;23.374;2022-09-04T07:49:39;8.70;;;7.80;;
10461;SDS011;5278;42.656;23.374;2022-09-04T07:52:21;9.07;;;8.02;;
10461;SDS011;5278;42.656;23.374;2022-09-04T07:55:09;8.93;;;8.13;;
10461;SDS011;5278;42.656;23.374;2022-09-04T08:00:49;9.65;;;8.60;;
10461;SDS011;5278;42.656;23.374;2022-09-04T08:03:35;11.57;;;9.32;;
10461;SDS011;5278;42.656;23.374;2022-09-04T08:06:15;10.45;;;8.95;;
10461;SDS011;5278;42.656;23.374;2022-09-04T08:11:56;12.70;;;9.55;;
10461;SDS011;5278;42.656;23.374;2022-09-04T08:15:01;11.13;;;9.55;;
10461;SDS011;5278;42.656;23.374;2022-09-04T08:17:46;10.55;;;9.40;;
10461;SDS011;5278;42.656;23.374;2022-09-04T08:26:08;10.15;;;7.80;;
10461;SDS011;5278;42.656;23.374;2022-09-04T08:28:51;10.00;;;8.00;;
10461;SDS011;5278;42.656;23.374;2022-09-04T08:31:31;9.65;;;7.95;;
10461;SDS011;5278;42.656;23.374;2022-09-04T08:37:06;8.68;;;7.88;;
10461;SDS011;5278;42.656;23.374;2022-09-04T08:39:47;8.13;;;7.32;;
10461;SDS011;5278;42.656;23.374;2022-09-04T08:45:50;9.45;;;7.55;;
10461;SDS011;5278;42.656;23.374;2022-09-04T08:48:49;8.32;;;6.78;;
10461;SDS011;5278;42.656;23.374;2022-09-04T08:55:04;9.20;;;8.38;;
10461;SDS011;5278;42.656;23.374;2022-09-04T09:01:20;5.78;;;5.28;;
10461;SDS011;5278;42.656;23.374;2022-09-04T09:04:14;6.47;;;5.25;;
10461;SDS011;5278;42.656;23.374;2022-09-04T09:07:17;6.65;;;5.65;;
10461;SDS011;5278;42.656;23.374;2022-09-04T09:16:09;5.95;;;5.35;;
10461;SDS011;5278;42.656;23.374;2022-09-04T09:22:07;3.95;;;3.65;;
10461;SDS011;5278;42.656;23.374;2022-09-04T09:24:44;5.10;;;4.53;;
10461;SDS011;5278;42.656;23.374;2022-09-04T09:27:35;4.63;;;4.20;;
10461;SDS011;5278;42.656;23.374;2022-09-04T09:30:36;4.70;;;4.30;;
10461;SDS011;5278;42.656;23.374;2022-09-04T09:36:43;5.53;;;5.05;;
10461;SDS011;5278;42.656;23.374;2022-09-04T09:42:39;5.40;;;4.90;;
10461;SDS011;5278;42.656;23.374;2022-09-04T09:49:05;4.82;;;4.43;;
10461;SDS011;5278;42.656;23.374;2022-09-04T09:52:18;7.88;;;6.72;;
10461;SDS011;5278;42.656;23.374;2022-09-04T10:01:12;6.43;;;4.22;;
10461;SDS011;5278;42.656;23.374;2022-09-04T10:04:04;6.15;;;5.57;;
10461;SDS011;5278;42.656;23.374;2022-09-04T10:13:16;4.80;;;4.40;;
10461;SDS011;5278;42.656;23.374;2022-09-04T10:16:07;5.03;;;4.53;;
10461;SDS011;5278;42.656;23.374;2022-09-04T10:21:57;6.82;;;4.20;;
10461;SDS011;5278;42.656;23.374;2022-09-04T10:27:51;4.80;;;4.13;;
10461;SDS011;5278;42.656;23.374;2022-09-04T10:30:39;5.32;;;4.70;;
10461;SDS011;5278;42.656;23.374;2022-09-04T10:33:28;5.82;;;4.45;;
10461;SDS011;5278;42.656;23.374;2022-09-04T10:36:12;5.55;;;4.80;;
10461;SDS011;5278;42.656;23.374;2022-09-04T10:38:53;5.68;;;4.00;;
10461;SDS011;5278;42.656;23.374;2022-09-04T10:41:57;4.90;;;3.97;;
10461;SDS011;5278;42.656;23.374;2022-09-04T10:44:39;5.50;;;4.15;;
10461;SDS011;5278;42.656;23.374;2022-09-04T10:47:17;4.80;;;4.40;;
10461;SDS011;5278;42.656;23.374;2022-09-04T10:50:16;4.65;;;4.25;;
10461;SDS011;5278;42.656;23.374;2022-09-04T10:52:59;4.57;;;4.18;;
10461;SDS011;5278;42.656;23.374;2022-09-04T10:55:49;4.63;;;4.05;;
10461;SDS011;5278;42.656;23.374;2022-09-04T10:58:28;5.35;;;4.20;;
10461;SDS011;5278;42.656;23.374;2022-09-04T11:01:14;4.40;;;4.00;;
10461;SDS011;5278;42.656;23.374;2022-09-04T11:04:09;4.30;;;3.90;;
10461;SDS011;5278;42.656;23.374;2022-09-04T11:07:08;4.28;;;3.78;;
10461;SDS011;5278;42.656;23.374;2022-09-04T11:10:24;4.43;;;4.03;;
10461;SDS011;5278;42.656;23.374;2022-09-04T11:13:07;4.63;;;4.15;;
10461;SDS011;5278;42.656;23.374;2022-09-04T11:15:56;4.30;;;3.90;;
10461;SDS011;5278;42.656;23.374;2022-09-04T11:18:52;4.32;;;3.92;;
10461;SDS011;5278;42.656;23.374;2022-09-04T11:22:00;4.20;;;3.80;;
10461;SDS011;5278;42.656;23.374;2022-09-04T11:28:03;4.47;;;4.07;;
10461;SDS011;5278;42.656;23.374;2022-09-04T11:30:46;7.35;;;3.80;;
10461;SDS011;5278;42.656;23.374;2022-09-04T11:36:32;5.75;;;3.83;;
10461;SDS011;5278;42.656;23.374;2022-09-04T11:39:45;3.78;;;3.47;;
10461;SDS011;5278;42.656;23.374;2022-09-04T11:42:35;3.67;;;3.38;;
10461;SDS011;5278;42.656;23.374;2022-09-04T11:48:34;4.00;;;3.70;;
10461;SDS011;5278;42.656;23.374;2022-09-04T11:54:25;6.63;;;5.68;;
10461;SDS011;5278;42.656;23.374;2022-09-04T11:57:08;4.95;;;3.90;;
10461;SDS011;5278;42.656;23.374;2022-09-04T12:02:35;4.15;;;3.45;;
10461;SDS011;5278;42.656;23.374;2022-09-04T12:08:34;5.05;;;4.50;;
10461;SDS011;5278;42.656;23.374;2022-09-04T12:14:21;7.75;;;5.03;;
10461;SDS011;5278;42.656;23.374;2022-09-04T12:26:45;4.53;;;4.13;;
10461;SDS011;5278;42.656;23.374;2022-09-04T12:32:49;4.43;;;4.00;;
10461;SDS011;5278;42.656;23.374;2022-09-04T12:35:34;5.35;;;3.97;;
10461;SDS011;5278;42.656;23.374;2022-09-04T12:38:30;4.03;;;3.63;;
10461;SDS011;5278;42.656;23.374;2022-09-04T12:41:12;4.27;;;3.80;;
10461;SDS011;5278;42.656;23.374;2022-09-04T12:43:49;4.67;;;4.27;;
10461;SDS011;5278;42.656;23.374;2022-09-04T12:46:33;4.50;;;4.10;;
10461;SDS011;5278;42.656;23.374;2022-09-04T12:49:27;5.03;;;4.53;;
10461;SDS011;5278;42.656;23.374;2022-09-04T12:52:07;3.90;;;3.47;;
10461;SDS011;5278;42.656;23.374;2022-09-04T12:54:45;4.77;;;3.50;;
10461;SDS011;5278;42.656;23.374;2022-09-04T12:57:27;4.40;;;3.77;;
10461;SDS011;5278;42.656;23.374;2022-09-04T13:00:03;4.00;;;3.70;;
10461;SDS011;5278;42.656;23.374;2022-09-04T13:02:47;4.77;;;3.50;;
10461;SDS011;5278;42.656;23.374;2022-09-04T13:05:30;4.20;;;3.80;;
10461;SDS011;5278;42.656;23.374;2022-09-04T13:08:10;4.83;;;3.40;;
10461;SDS011;5278;42.656;23.374;2022-09-04T13:10:54;3.73;;;3.30;;
10461;SDS011;5278;42.656;23.374;2022-09-04T13:13:28;3.90;;;3.53;;
10461;SDS011;5278;42.656;23.374;2022-09-04T13:16:05;3.63;;;3.23;;
10461;SDS011;5278;42.656;23.374;2022-09-04T13:18:42;5.03;;;3.40;;
10461;SDS011;5278;42.656;23.374;2022-09-04T13:21:27;4.10;;;3.80;;
10461;SDS011;5278;42.656;23.374;2022-09-04T13:24:16;3.90;;;3.60;;
10461;SDS011;5278;42.656;23.374;2022-09-04T13:27:01;4.40;;;3.87;;
10461;SDS011;5278;42.656;23.374;2022-09-04T13:29:43;5.50;;;3.83;;
10461;SDS011;5278;42.656;23.374;2022-09-04T13:32:31;7.87;;;4.50;;
10461;SDS011;5278;42.656;23.374;2022-09-04T13:35:20;3.40;;;3.00;;
10461;SDS011;5278;42.656;23.374;2022-09-04T13:38:11;4.43;;;3.97;;
10461;SDS011;5278;42.656;23.374;2022-09-04T13:41:02;4.07;;;3.53;;
10461;SDS011;5278;42.656;23.374;2022-09-04T13:44:07;5.27;;;4.60;;
10461;SDS011;5278;42.656;23.374;2022-09-04T13:46:56;4.27;;;3.87;;
10461;SDS011;5278;42.656;23.374;2022-09-04T13:49:28;6.57;;;5.47;;
10461;SDS011;5278;42.656;23.374;2022-09-04T13:52:04;5.77;;;4.93;;
10461;SDS011;5278;42.656;23.374;2022-09-04T13:54:35;4.73;;;4.33;;
10461;SDS011;5278;42.656;23.374;2022-09-04T13:57:07;7.07;;;5.40;;
10461;SDS011;5278;42.656;23.374;2022-09-04T13:59:40;5.57;;;4.47;;
10461;SDS011;5278;42.656;23.374;2022-09-04T14:02:09;4.57;;;3.33;;
10461;SDS011;5278;42.656;23.374;2022-09-04T14:04:40;5.47;;;3.33;;
10461;SDS011;5278;42.656;23.374;2022-09-04T14:07:12;4.27;;;3.87;;
10461;SDS011;5278;42.656;23.374;2022-09-04T14:09:48;3.93;;;3.50;;
10461;SDS011;5278;42.656;23.374;2022-09-04T14:12:36;5.13;;;3.10;;
10461;SDS011;5278;42.656;23.374;2022-09-04T14:18:44;4.57;;;3.23;;
10461;SDS011;5278;42.656;23.374;2022-09-04T14:21:39;3.43;;;3.10;;
10461;SDS011;5278;42.656;23.374;2022-09-04T14:24:33;5.43;;;4.83;;
10461;SDS011;5278;42.656;23.374;2022-09-04T14:27:09;5.00;;;3.80;;
10461;SDS011;5278;42.656;23.374;2022-09-04T14:29:48;8.70;;;6.57;;
10461;SDS011;5278;42.656;23.374;2022-09-04T14:32:29;4.70;;;4.13;;
10461;SDS011;5278;42.656;23.374;2022-09-04T14:35:06;6.23;;;5.63;;
10461;SDS011;5278;42.656;23.374;2022-09-04T14:37:47;4.07;;;3.40;;
10461;SDS011;5278;42.656;23.374;2022-09-04T14:40:26;4.47;;;3.37;;
10461;SDS011;5278;42.656;23.374;2022-09-04T14:42:59;5.83;;;3.43;;
10461;SDS011;5278;42.656;23.374;2022-09-04T14:45:49;4.07;;;3.67;;
10461;SDS011;5278;42.656;23.374;2022-09-04T14:48:30;7.87;;;5.00;;
10461;SDS011;5278;42.656;23.374;2022-09-04T14:51:09;4.63;;;3.80;;
10461;SDS011;5278;42.656;23.374;2022-09-04T14:53:44;3.97;;;3.53;;
10461;SDS011;5278;42.656;23.374;2022-09-04T14:59:07;4.13;;;3.73;;
10461;SDS011;5278;42.656;23.374;2022-09-04T15:01:53;4.50;;;4.10;;
10461;SDS011;5278;42.656;23.374;2022-09-04T15:04:29;3.87;;;3.57;;
10461;SDS011;5278;42.656;23.374;2022-09-04T15:07:02;5.27;;;3.60;;
10461;SDS011;5278;42.656;23.374;2022-09-04T15:09:46;5.40;;;3.63;;
10461;SDS011;5278;42.656;23.374;2022-09-04T15:12:17;4.50;;;3.60;;
10461;SDS011;5278;42.656;23.374;2022-09-04T15:14:48;4.50;;;4.10;;
10461;SDS011;5278;42.656;23.374;2022-09-04T15:17:21;4.13;;;3.63;;
10461;SDS011;5278;42.656;23.374;2022-09-04T15:19:53;4.73;;;3.90;;
10461;SDS011;5278;42.656;23.374;2022-09-04T15:22:26;4.00;;;3.43;;
10461;SDS011;5278;42.656;23.374;2022-09-04T15:25:02;3.97;;;3.57;;
10461;SDS011;5278;42.656;23.374;2022-09-04T15:27:34;6.97;;;4.00;;
10461;SDS011;5278;42.656;23.374;2022-09-04T15:30:14;5.67;;;3.80;;
10461;SDS011;5278;42.656;23.374;2022-09-04T15:32:44;7.43;;;4.13;;
10461;SDS011;5278;42.656;23.374;2022-09-04T15:35:14;5.93;;;4.33;;
10461;SDS011;5278;42.656;23.374;2022-09-04T15:37:47;4.83;;;3.70;;
10461;SDS011;5278;42.656;23.374;2022-09-04T15:40:20;3.20;;;2.97;;
10461;SDS011;5278;42.656;23.374;2022-09-04T15:43:00;4.57;;;3.90;;
10461;SDS011;5278;42.656;23.374;2022-09-04T15:45:39;4.87;;;3.97;;
10461;SDS011;5278;42.656;23.374;2022-09-04T15:48:21;4.73;;;4.27;;
10461;SDS011;5278;42.656;23.374;2022-09-04T15:51:09;7.60;;;4.90;;
10461;SDS011;5278;42.656;23.374;2022-09-04T15:53:45;4.53;;;4.13;;
10461;SDS011;5278;42.656;23.374;2022-09-04T15:56:26;4.23;;;3.47;;
10461;SDS011;5278;42.656;23.374;2022-09-04T15:58:59;4.33;;;3.80;;
10461;SDS011;5278;42.656;23.374;2022-09-04T16:01:40;3.73;;;3.40;;
10461;SDS011;5278;42.656;23.374;2022-09-04T16:04:16;3.97;;;3.60;;
10461;SDS011;5278;42.656;23.374;2022-09-04T16:06:51;4.27;;;3.87;;
10461;SDS011;5278;42.656;23.374;2022-09-04T16:09:23;4.57;;;3.43;;
10461;SDS011;5278;42.656;23.374;2022-09-04T16:11:57;4.17;;;3.40;;
10461;SDS011;5278;42.656;23.374;2022-09-04T16:14:34;5.27;;;3.77;;
10461;SDS011;5278;42.656;23.374;2022-09-04T16:17:05;3.90;;;3.10;;
10461;SDS011;5278;42.656;23.374;2022-09-04T16:19:39;6.90;;;3.60;;
10461;SDS011;5278;42.656;23.374;2022-09-04T16:22:16;3.57;;;3.27;;
10461;SDS011;5278;42.656;23.374;2022-09-04T16:24:50;4.80;;;3.03;;
10461;SDS011;5278;42.656;23.374;2022-09-04T16:27:24;3.83;;;3.00;;
10461;SDS011;5278;42.656;23.374;2022-09-04T16:29:56;2.90;;;2.70;;
10461;SDS011;5278;42.656;23.374;2022-09-04T16:32:27;3.80;;;3.23;;
10461;SDS011;5278;42.656;23.374;2022-09-04T16:34:58;4.20;;;3.80;;
10461;SDS011;5278;42.656;23.374;2022-09-04T16:37:30;3.53;;;3.23;;
10461;SDS011;5278;42.656;23.374;2022-09-04T16:40:04;3.80;;;3.40;;
10461;SDS011;5278;42.656;23.374;2022-09-04T16:42:46;4.23;;;3.83;;
10461;SDS011;5278;42.656;23.374;2022-09-04T16:45:18;6.47;;;5.60;;
10461;SDS011;5278;42.656;23.374;2022-09-04T16:47:51;5.87;;;5.00;;
10461;SDS011;5278;42.656;23.374;2022-09-04T16:50:24;6.37;;;3.80;;
10461;SDS011;5278;42.656;23.374;2022-09-04T16:52:58;3.50;;;3.20;;
10461;SDS011;5278;42.656;23.374;2022-09-04T16:55:31;4.20;;;3.80;;
10461;SDS011;5278;42.656;23.374;2022-09-04T16:58:10;3.53;;;3.23;;
10461;SDS011;5278;42.656;23.374;2022-09-04T17:03:40;3.80;;;3.50;;
10461;SDS011;5278;42.656;23.374;2022-09-04T17:06:29;6.43;;;3.53;;
10461;SDS011;5278;42.656;23.374;2022-09-04T17:09:03;5.73;;;4.33;;
10461;SDS011;5278;42.656;23.374;2022-09-04T17:11:38;4.97;;;3.47;;
10461;SDS011;5278;42.656;23.374;2022-09-04T17:14:13;5.50;;;3.73;;
10461;SDS011;5278;42.656;23.374;2022-09-04T17:16:52;5.07;;;4.00;;
10461;SDS011;5278;42.656;23.374;2022-09-04T17:19:21;7.10;;;4.10;;
10461;SDS011;5278;42.656;23.374;2022-09-04T17:24:57;5.23;;;4.07;;
10461;SDS011;5278;42.656;23.374;2022-09-04T17:27:34;5.10;;;4.30;;
10461;SDS011;5278;42.656;23.374;2022-09-04T17:30:08;4.20;;;3.67;;
10461;SDS011;5278;42.656;23.374;2022-09-04T17:32:45;4.10;;;3.53;;
10461;SDS011;5278;42.656;23.374;2022-09-04T17:35:19;4.17;;;3.77;;
10461;SDS011;5278;42.656;23.374;2022-09-04T17:37:52;4.10;;;3.60;;
10461;SDS011;5278;42.656;23.374;2022-09-04T17:40:24;4.17;;;3.83;;
10461;SDS011;5278;42.656;23.374;2022-09-04T17:43:07;4.30;;;3.90;;
10461;SDS011;5278;42.656;23.374;2022-09-04T17:45:47;4.87;;;4.33;;
10461;SDS011;5278;42.656;23.374;2022-09-04T17:48:28;11.47;;;9.37;;
10461;SDS011;5278;42.656;23.374;2022-09-04T17:50:58;5.50;;;4.77;;
10461;SDS011;5278;42.656;23.374;2022-09-04T17:53:28;6.47;;;3.80;;
10461;SDS011;5278;42.656;23.374;2022-09-04T17:55:57;4.73;;;4.07;;
10461;SDS011;5278;42.656;23.374;2022-09-04T17:58:31;3.63;;;3.33;;
10461;SDS011;5278;42.656;23.374;2022-09-04T18:01:03;4.47;;;3.40;;
10461;SDS011;5278;42.656;23.374;2022-09-04T18:03:38;4.67;;;3.40;;
10461;SDS011;5278;42.656;23.374;2022-09-04T18:06:13;3.73;;;3.33;;
10461;SDS011;5278;42.656;23.374;2022-09-04T18:08:47;4.43;;;4.00;;
10461;SDS011;5278;42.656;23.374;2022-09-04T18:11:19;3.90;;;3.50;;
10461;SDS011;5278;42.656;23.374;2022-09-04T18:13:54;6.70;;;4.20;;
10461;SDS011;5278;42.656;23.374;2022-09-04T18:19:28;4.73;;;3.90;;
10461;SDS011;5278;42.656;23.374;2022-09-04T18:22:04;5.03;;;4.07;;
10461;SDS011;5278;42.656;23.374;2022-09-04T18:24:45;4.30;;;3.90;;
10461;SDS011;5278;42.656;23.374;2022-09-04T18:27:19;5.03;;;4.27;;
10461;SDS011;5278;42.656;23.374;2022-09-04T18:29:49;4.90;;;4.17;;